sensor_id;sensor_type;location;lat;lon;timestamp;pressure;altitude;pressure_sealevel;temperature;humidity
20160;BME280;50187;50.492;12.134;2023-06-14T00:02:21;97407.78;;;23.61;36.97
20160;BME280;50187;50.492;12.134;2023-06-14T00:04:48;97411.31;;;23.62;36.96
20160;BME280;50187;50.492;12.134;2023-06-14T00:07:18;97409.47;;;23.62;37.12
20160;BME280;50187;50.492;12.134;2023-06-14T00:09:45;97409.66;;;23.61;36.97
20160;BME280;50187;50.492;12.134;2023-06-14T00:12:11;97407.97;;;23.60;37.04
20160;BME280;50187;50.492;12.134;2023-06-14T00:14:38;97410.50;;;23.61;37.33
20160;BME280;50187;50.492;12.134;2023-06-14T00:17:05;97411.31;;;23.62;37.31
20160;BME280;50187;50.492;12.134;2023-06-14T00:19:33;97415.28;;;23.59;37.14
20160;BME280;50187;50.492;12.134;2023-06-14T00:22:02;97402.53;;;23.60;37.35
20160;BME280;50187;50.492;12.134;2023-06-14T00:24:29;97409.00;;;23.59;37.11
20160;BME280;50187;50.492;12.134;2023-06-14T00:26:56;97413.41;;;23.60;37.16
20160;BME280;50187;50.492;12.134;2023-06-14T00:29:23;97405.63;;;23.57;37.36
20160;BME280;50187;50.492;12.134;2023-06-14T00:31:49;97405.44;;;23.58;37.20
20160;BME280;50187;50.492;12.134;2023-06-14T00:34:17;97392.25;;;23.55;37.22
20160;BME280;50187;50.492;12.134;2023-06-14T00:36:44;97397.50;;;23.57;37.28
20160;BME280;50187;50.492;12.134;2023-06-14T00:39:13;97391.88;;;23.58;37.50
20160;BME280;50187;50.492;12.134;2023-06-14T00:41:40;97392.88;;;23.57;37.28
20160;BME280;50187;50.492;12.134;2023-06-14T00:44:06;97398.50;;;23.56;37.29
20160;BME280;50187;50.492;12.134;2023-06-14T00:46:33;97398.31;;;23.57;37.54
20160;BME280;50187;50.492;12.134;2023-06-14T00:49:00;97402.72;;;23.58;37.27
20160;BME280;50187;50.492;12.134;2023-06-14T00:51:27;97418.00;;;23.59;37.48
20160;BME280;50187;50.492;12.134;2023-06-14T00:53:54;97419.22;;;23.57;37.30
20160;BME280;50187;50.492;12.134;2023-06-14T00:56:21;97410.03;;;23.58;37.30
20160;BME280;50187;50.492;12.134;2023-06-14T00:58:50;97410.03;;;23.58;37.62
20160;BME280;50187;50.492;12.134;2023-06-14T01:01:18;97410.88;;;23.58;37.64
20160;BME280;50187;50.492;12.134;2023-06-14T01:03:44;97413.59;;;23.58;37.55
20160;BME280;50187;50.492;12.134;2023-06-14T01:09:12;97417.31;;;23.57;37.40
20160;BME280;50187;50.492;12.134;2023-06-14T01:11:50;97415.00;;;23.54;37.64
20160;BME280;50187;50.492;12.134;2023-06-14T01:14:17;97421.06;;;23.56;37.54
20160;BME280;50187;50.492;12.134;2023-06-14T01:16:45;97422.94;;;23.56;37.38
20160;BME280;50187;50.492;12.134;2023-06-14T01:19:14;97425.84;;;23.54;37.48
20160;BME280;50187;50.492;12.134;2023-06-14T01:21:42;97416.00;;;23.53;37.66
20160;BME280;50187;50.492;12.134;2023-06-14T01:24:09;97427.53;;;23.55;37.58
20160;BME280;50187;50.492;12.134;2023-06-14T01:26:38;97425.22;;;23.52;37.74
20160;BME280;50187;50.492;12.134;2023-06-14T01:29:13;97419.59;;;23.54;37.75
20160;BME280;50187;50.492;12.134;2023-06-14T01:31:45;97415.19;;;23.53;37.70
20160;BME280;50187;50.492;12.134;2023-06-14T01:34:12;97416.00;;;23.53;37.73
20160;BME280;50187;50.492;12.134;2023-06-14T01:36:41;97415.94;;;23.46;37.75
20160;BME280;50187;50.492;12.134;2023-06-14T01:39:08;97426.22;;;23.51;37.63
20160;BME280;50187;50.492;12.134;2023-06-14T01:41:34;97417.06;;;23.52;37.87
20160;BME280;50187;50.492;12.134;2023-06-14T01:44:02;97413.88;;;23.48;37.82
20160;BME280;50187;50.492;12.134;2023-06-14T01:46:32;97412.84;;;23.49;37.65
20160;BME280;50187;50.492;12.134;2023-06-14T01:48:59;97426.22;;;23.51;37.69
20160;BME280;50187;50.492;12.134;2023-06-14T01:51:25;97417.22;;;23.50;37.93
20160;BME280;50187;50.492;12.134;2023-06-14T01:53:52;97413.69;;;23.50;37.92
20160;BME280;50187;50.492;12.134;2023-06-14T01:56:19;97412.00;;;23.49;37.84
20160;BME280;50187;50.492;12.134;2023-06-14T01:58:47;97417.41;;;23.49;37.87
20160;BME280;50187;50.492;12.134;2023-06-14T02:01:14;97417.63;;;23.47;37.93
20160;BME280;50187;50.492;12.134;2023-06-14T02:03:44;97410.53;;;23.46;37.91
20160;BME280;50187;50.492;12.134;2023-06-14T02:06:15;97414.91;;;23.47;38.02
20160;BME280;50187;50.492;12.134;2023-06-14T02:08:42;97415.75;;;23.48;38.00
20160;BME280;50187;50.492;12.134;2023-06-14T02:11:09;97418.66;;;23.46;37.88
20160;BME280;50187;50.492;12.134;2023-06-14T02:13:35;97422.22;;;23.47;37.92
20160;BME280;50187;50.492;12.134;2023-06-14T02:16:02;97413.41;;;23.45;37.71
20160;BME280;50187;50.492;12.134;2023-06-14T02:18:29;97419.88;;;23.44;37.81
20160;BME280;50187;50.492;12.134;2023-06-14T02:20:56;97422.41;;;23.45;38.11
20160;BME280;50187;50.492;12.134;2023-06-14T02:23:23;97424.25;;;23.45;38.06
20160;BME280;50187;50.492;12.134;2023-06-14T02:25:50;97428.84;;;23.44;38.15
20160;BME280;50187;50.492;12.134;2023-06-14T02:28:17;97427.81;;;23.45;38.10
20160;BME280;50187;50.492;12.134;2023-06-14T02:30:44;97432.41;;;23.45;38.17
20160;BME280;50187;50.492;12.134;2023-06-14T02:33:10;97436.16;;;23.44;37.98
20160;BME280;50187;50.492;12.134;2023-06-14T02:35:39;97428.03;;;23.44;38.23
20160;BME280;50187;50.492;12.134;2023-06-14T02:38:07;97432.41;;;23.45;37.99
20160;BME280;50187;50.492;12.134;2023-06-14T02:40:33;97427.16;;;23.43;37.93
20160;BME280;50187;50.492;12.134;2023-06-14T02:43:00;97426.31;;;23.43;38.01
20160;BME280;50187;50.492;12.134;2023-06-14T02:45:28;97430.06;;;23.42;38.20
20160;BME280;50187;50.492;12.134;2023-06-14T02:47:55;97430.06;;;23.42;38.03
20160;BME280;50187;50.492;12.134;2023-06-14T02:50:22;97426.53;;;23.41;38.11
20160;BME280;50187;50.492;12.134;2023-06-14T02:52:50;97439.06;;;23.42;38.01
20160;BME280;50187;50.492;12.134;2023-06-14T02:55:17;97439.91;;;23.43;37.97
20160;BME280;50187;50.492;12.134;2023-06-14T02:57:44;97444.50;;;23.42;37.98
20160;BME280;50187;50.492;12.134;2023-06-14T03:00:11;97440.91;;;23.42;38.19
20160;BME280;50187;50.492;12.134;2023-06-14T03:02:42;97451.78;;;23.42;38.29
20160;BME280;50187;50.492;12.134;2023-06-14T03:05:10;97437.75;;;23.38;38.03
20160;BME280;50187;50.492;12.134;2023-06-14T03:07:37;97442.81;;;23.41;38.09
20160;BME280;50187;50.492;12.134;2023-06-14T03:10:08;97448.22;;;23.41;38.07
20160;BME280;50187;50.492;12.134;2023-06-14T03:12:37;97456.56;;;23.40;38.12
20160;BME280;50187;50.492;12.134;2023-06-14T03:15:05;97459.28;;;23.40;38.10
20160;BME280;50187;50.492;12.134;2023-06-14T03:17:36;97458.41;;;23.39;38.10
20160;BME280;50187;50.492;12.134;2023-06-14T03:20:07;97456.75;;;23.38;38.39
20160;BME280;50187;50.492;12.134;2023-06-14T03:22:34;97459.47;;;23.38;38.29
20160;BME280;50187;50.492;12.134;2023-06-14T03:25:01;97460.28;;;23.39;38.34
20160;BME280;50187;50.492;12.134;2023-06-14T03:27:33;97455.88;;;23.38;38.43
20160;BME280;50187;50.492;12.134;2023-06-14T03:30:01;97466.75;;;23.38;38.45
20160;BME280;50187;50.492;12.134;2023-06-14T03:32:29;97466.75;;;23.38;38.26
20160;BME280;50187;50.492;12.134;2023-06-14T03:34:59;97462.38;;;23.37;38.47
20160;BME280;50187;50.492;12.134;2023-06-14T03:37:26;97478.66;;;23.37;38.42
20160;BME280;50187;50.492;12.134;2023-06-14T03:39:53;97478.66;;;23.37;38.31
20160;BME280;50187;50.492;12.134;2023-06-14T03:42:23;97482.19;;;23.37;38.21
20160;BME280;50187;50.492;12.134;2023-06-14T03:44:50;97481.53;;;23.35;38.49
20160;BME280;50187;50.492;12.134;2023-06-14T03:47:18;97484.25;;;23.35;38.50
20160;BME280;50187;50.492;12.134;2023-06-14T03:49:46;97484.44;;;23.33;38.36
20160;BME280;50187;50.492;12.134;2023-06-14T03:52:13;97489.03;;;23.33;38.48
20160;BME280;50187;50.492;12.134;2023-06-14T03:54:44;97490.72;;;23.34;38.47
20160;BME280;50187;50.492;12.134;2023-06-14T03:57:15;97493.63;;;23.32;38.19
20160;BME280;50187;50.492;12.134;2023-06-14T03:59:43;97496.97;;;23.35;38.21
20160;BME280;50187;50.492;12.134;2023-06-14T04:02:11;97501.56;;;23.34;38.50
20160;BME280;50187;50.492;12.134;2023-06-14T04:04:38;97507.84;;;23.35;38.41
20160;BME280;50187;50.492;12.134;2023-06-14T04:07:05;97507.00;;;23.34;38.31
20160;BME280;50187;50.492;12.134;2023-06-14T04:09:32;97508.22;;;23.31;38.41
20160;BME280;50187;50.492;12.134;2023-06-14T04:11:58;97507.38;;;23.31;38.40
20160;BME280;50187;50.492;12.134;2023-06-14T04:14:25;97511.75;;;23.32;38.62
20160;BME280;50187;50.492;12.134;2023-06-14T04:16:52;97517.00;;;23.33;38.47
20160;BME280;50187;50.492;12.134;2023-06-14T04:19:19;97519.91;;;23.32;38.30
20160;BME280;50187;50.492;12.134;2023-06-14T04:21:46;97517.19;;;23.32;38.33
20160;BME280;50187;50.492;12.134;2023-06-14T04:24:15;97526.19;;;23.32;38.56
20160;BME280;50187;50.492;12.134;2023-06-14T04:26:45;97524.50;;;23.31;38.60
20160;BME280;50187;50.492;12.134;2023-06-14T04:29:14;97519.06;;;23.31;38.55
20160;BME280;50187;50.492;12.134;2023-06-14T04:31:46;97522.81;;;23.30;38.46
20160;BME280;50187;50.492;12.134;2023-06-14T04:34:13;97526.53;;;23.29;38.72
20160;BME280;50187;50.492;12.134;2023-06-14T04:36:47;97532.63;;;23.31;38.60
20160;BME280;50187;50.492;12.134;2023-06-14T04:39:20;97544.50;;;23.30;38.65
20160;BME280;50187;50.492;12.134;2023-06-14T04:41:49;97539.94;;;23.31;38.36
20160;BME280;50187;50.492;12.134;2023-06-14T04:44:19;97544.50;;;23.30;38.54
20160;BME280;50187;50.492;12.134;2023-06-14T04:46:52;97542.66;;;23.31;38.57
20160;BME280;50187;50.492;12.134;2023-06-14T04:49:21;97534.53;;;23.31;38.60
20160;BME280;50187;50.492;12.134;2023-06-14T04:51:49;97530.13;;;23.30;38.74
20160;BME280;50187;50.492;12.134;2023-06-14T04:54:25;97530.94;;;23.30;38.51
20160;BME280;50187;50.492;12.134;2023-06-14T04:56:53;97533.00;;;23.28;38.56
20160;BME280;50187;50.492;12.134;2023-06-14T04:59:24;97529.09;;;23.31;38.71
20160;BME280;50187;50.492;12.134;2023-06-14T05:01:51;97531.97;;;23.29;38.76
20160;BME280;50187;50.492;12.134;2023-06-14T05:04:19;97532.81;;;23.30;38.59
20160;BME280;50187;50.492;12.134;2023-06-14T05:06:46;97542.81;;;23.29;38.48
20160;BME280;50187;50.492;12.134;2023-06-14T05:09:15;97546.41;;;23.30;38.74
20160;BME280;50187;50.492;12.134;2023-06-14T05:11:43;97542.81;;;23.29;38.55
20160;BME280;50187;50.492;12.134;2023-06-14T05:14:11;97544.50;;;23.30;38.61
20160;BME280;50187;50.492;12.134;2023-06-14T05:16:38;97537.41;;;23.29;38.79
20160;BME280;50187;50.492;12.134;2023-06-14T05:19:06;97544.69;;;23.29;38.71
20160;BME280;50187;50.492;12.134;2023-06-14T05:21:32;97550.97;;;23.29;38.79
20160;BME280;50187;50.492;12.134;2023-06-14T05:24:07;97548.25;;;23.29;38.54
20160;BME280;50187;50.492;12.134;2023-06-14T05:26:35;97543.88;;;23.28;38.62
20160;BME280;50187;50.492;12.134;2023-06-14T05:29:02;97543.88;;;23.28;38.77
20160;BME280;50187;50.492;12.134;2023-06-14T05:31:29;97539.47;;;23.27;38.83
20160;BME280;50187;50.492;12.134;2023-06-14T05:33:56;97542.19;;;23.27;38.83
20160;BME280;50187;50.492;12.134;2023-06-14T05:36:22;97550.13;;;23.29;38.78
20160;BME280;50187;50.492;12.134;2023-06-14T05:38:49;97545.72;;;23.28;38.70
20160;BME280;50187;50.492;12.134;2023-06-14T05:41:17;97552.00;;;23.28;38.88
20160;BME280;50187;50.492;12.134;2023-06-14T05:43:43;97543.88;;;23.28;38.85
20160;BME280;50187;50.492;12.134;2023-06-14T05:46:10;97552.00;;;23.28;38.57
20160;BME280;50187;50.492;12.134;2023-06-14T05:48:36;97550.31;;;23.27;38.58
20160;BME280;50187;50.492;12.134;2023-06-14T05:51:03;97555.94;;;23.26;38.65
20160;BME280;50187;50.492;12.134;2023-06-14T05:53:30;97549.00;;;23.23;38.80
20160;BME280;50187;50.492;12.134;2023-06-14T05:55:57;97556.31;;;23.23;38.83
20160;BME280;50187;50.492;12.134;2023-06-14T05:58:23;97551.72;;;23.23;38.59
20160;BME280;50187;50.492;12.134;2023-06-14T06:00:50;97557.13;;;23.23;38.72
20160;BME280;50187;50.492;12.134;2023-06-14T06:03:17;97553.59;;;23.23;38.41
20160;BME280;50187;50.492;12.134;2023-06-14T06:05:43;97546.28;;;23.23;38.58
20160;BME280;50187;50.492;12.134;2023-06-14T06:08:10;97550.19;;;23.21;38.38
20160;BME280;50187;50.492;12.134;2023-06-14T06:10:37;97552.72;;;23.22;38.59
20160;BME280;50187;50.492;12.134;2023-06-14T06:13:03;97544.59;;;23.22;38.43
20160;BME280;50187;50.492;12.134;2023-06-14T06:15:30;97547.28;;;23.22;38.36
20160;BME280;50187;50.492;12.134;2023-06-14T06:17:56;97549.00;;;23.23;38.14
20160;BME280;50187;50.492;12.134;2023-06-14T06:20:23;97548.81;;;23.25;38.31
20160;BME280;50187;50.492;12.134;2023-06-14T06:22:56;97546.28;;;23.23;38.31
20160;BME280;50187;50.492;12.134;2023-06-14T06:25:22;97541.69;;;23.24;38.27
20160;BME280;50187;50.492;12.134;2023-06-14T06:27:49;97554.22;;;23.25;38.02
20160;BME280;50187;50.492;12.134;2023-06-14T06:30:16;97555.09;;;23.25;38.02
20160;BME280;50187;50.492;12.134;2023-06-14T06:32:43;97552.19;;;23.27;38.20
20160;BME280;50187;50.492;12.134;2023-06-14T06:35:10;97555.09;;;23.25;37.92
20160;BME280;50187;50.492;12.134;2023-06-14T06:37:39;97563.88;;;23.27;38.20
20160;BME280;50187;50.492;12.134;2023-06-14T06:40:06;97558.47;;;23.27;37.84
20160;BME280;50187;50.492;12.134;2023-06-14T06:42:34;97562.19;;;23.26;38.10
20160;BME280;50187;50.492;12.134;2023-06-14T06:45:04;97561.16;;;23.27;38.01
20160;BME280;50187;50.492;12.134;2023-06-14T06:47:30;97577.66;;;23.26;37.72
20160;BME280;50187;50.492;12.134;2023-06-14T06:49:57;97568.09;;;23.30;37.98
20160;BME280;50187;50.492;12.134;2023-06-14T06:52:24;97577.09;;;23.30;37.71
20160;BME280;50187;50.492;12.134;2023-06-14T06:54:51;97572.34;;;23.32;37.74
20160;BME280;50187;50.492;12.134;2023-06-14T06:57:21;97572.16;;;23.34;37.73
20160;BME280;50187;50.492;12.134;2023-06-14T06:59:52;97572.97;;;23.35;37.54
20160;BME280;50187;50.492;12.134;2023-06-14T07:02:18;97575.50;;;23.36;37.65
20160;BME280;50187;50.492;12.134;2023-06-14T07:04:45;97573.66;;;23.37;37.78
20160;BME280;50187;50.492;12.134;2023-06-14T07:07:12;97569.06;;;23.37;37.77
20160;BME280;50187;50.492;12.134;2023-06-14T07:09:38;97576.00;;;23.40;37.62
20160;BME280;50187;50.492;12.134;2023-06-14T07:12:05;97579.38;;;23.42;37.79
20160;BME280;50187;50.492;12.134;2023-06-14T07:14:33;97579.38;;;23.42;37.81
20160;BME280;50187;50.492;12.134;2023-06-14T07:17:00;97599.03;;;23.44;37.74
20160;BME280;50187;50.492;12.134;2023-06-14T07:19:26;97585.28;;;23.45;37.48
20160;BME280;50187;50.492;12.134;2023-06-14T07:21:53;97582.38;;;23.47;37.81
20160;BME280;50187;50.492;12.134;2023-06-14T07:24:20;97579.66;;;23.47;37.75
20160;BME280;50187;50.492;12.134;2023-06-14T07:26:47;97584.06;;;23.48;37.49
20160;BME280;50187;50.492;12.134;2023-06-14T07:29:15;97588.47;;;23.49;37.56
20160;BME280;50187;50.492;12.134;2023-06-14T07:31:43;97594.75;;;23.49;37.54
20160;BME280;50187;50.492;12.134;2023-06-14T07:34:09;97592.50;;;23.53;37.72
20160;BME280;50187;50.492;12.134;2023-06-14T07:36:36;97600.44;;;23.55;37.60
20160;BME280;50187;50.492;12.134;2023-06-14T07:39:03;97598.41;;;23.57;37.48
20160;BME280;50187;50.492;12.134;2023-06-14T07:41:32;97590.09;;;23.58;37.65
20160;BME280;50187;50.492;12.134;2023-06-14T07:43:59;97589.72;;;23.61;37.36
20160;BME280;50187;50.492;12.134;2023-06-14T07:46:26;97603.09;;;23.63;37.46
20160;BME280;50187;50.492;12.134;2023-06-14T07:48:53;97583.53;;;23.67;37.26
20160;BME280;50187;50.492;12.134;2023-06-14T07:51:20;97581.84;;;23.66;37.37
20160;BME280;50187;50.492;12.134;2023-06-14T07:53:48;97586.25;;;23.67;37.40
20160;BME280;50187;50.492;12.134;2023-06-14T07:56:15;97586.91;;;23.70;37.50
20160;BME280;50187;50.492;12.134;2023-06-14T07:58:42;97588.63;;;23.71;37.41
20160;BME280;50187;50.492;12.134;2023-06-14T08:01:08;97591.31;;;23.71;37.32
20160;BME280;50187;50.492;12.134;2023-06-14T08:03:35;97588.06;;;23.75;37.49
20160;BME280;50187;50.492;12.134;2023-06-14T08:06:02;97585.97;;;23.77;37.30
20160;BME280;50187;50.492;12.134;2023-06-14T08:08:30;97597.97;;;23.83;37.13
20160;BME280;50187;50.492;12.134;2023-06-14T08:10:57;97587.28;;;23.81;37.28
20160;BME280;50187;50.492;12.134;2023-06-14T08:13:23;97589.19;;;23.81;37.17
20160;BME280;50187;50.492;12.134;2023-06-14T08:15:50;97588.81;;;23.84;36.96
20160;BME280;50187;50.492;12.134;2023-06-14T08:18:17;97589.31;;;23.88;37.17
20160;BME280;50187;50.492;12.134;2023-06-14T08:20:44;97590.81;;;23.90;37.01
20160;BME280;50187;50.492;12.134;2023-06-14T08:23:11;97584.34;;;23.91;37.07
20160;BME280;50187;50.492;12.134;2023-06-14T08:25:37;97592.78;;;23.96;36.92
20160;BME280;50187;50.492;12.134;2023-06-14T08:28:04;97584.06;;;24.01;36.62
20160;BME280;50187;50.492;12.134;2023-06-14T08:30:31;97581.16;;;24.03;36.60
20160;BME280;50187;50.492;12.134;2023-06-14T08:32:57;97584.25;;;23.99;36.91
20160;BME280;50187;50.492;12.134;2023-06-14T08:35:40;97579.13;;;24.05;36.71
20160;BME280;50187;50.492;12.134;2023-06-14T08:38:07;97595.03;;;24.08;36.53
20160;BME280;50187;50.492;12.134;2023-06-14T08:40:36;97580.44;;;24.09;36.50
20160;BME280;50187;50.492;12.134;2023-06-14T08:43:03;97592.13;;;24.09;36.60
20160;BME280;50187;50.492;12.134;2023-06-14T08:45:30;97582.94;;;24.10;36.86
20160;BME280;50187;50.492;12.134;2023-06-14T08:47:59;97585.47;;;24.12;36.61
20160;BME280;50187;50.492;12.134;2023-06-14T08:50:28;97592.59;;;24.13;36.67
20160;BME280;50187;50.492;12.134;2023-06-14T08:53:00;97581.34;;;24.16;36.51
20160;BME280;50187;50.492;12.134;2023-06-14T08:55:30;97588.50;;;24.17;36.61
20160;BME280;50187;50.492;12.134;2023-06-14T08:58:01;97588.09;;;24.20;36.72
20160;BME280;50187;50.492;12.134;2023-06-14T09:00:30;97592.13;;;24.24;36.73
20160;BME280;50187;50.492;12.134;2023-06-14T09:02:57;97588.34;;;24.25;36.59
20160;BME280;50187;50.492;12.134;2023-06-14T09:05:25;97589.03;;;24.27;36.72
20160;BME280;50187;50.492;12.134;2023-06-14T09:07:53;97592.38;;;24.29;36.68
20160;BME280;50187;50.492;12.134;2023-06-14T09:10:24;97583.31;;;24.37;36.74
20160;BME280;50187;50.492;12.134;2023-06-14T09:12:53;97589.75;;;24.36;36.67
20160;BME280;50187;50.492;12.134;2023-06-14T09:15:20;97592.09;;;24.39;36.60
20160;BME280;50187;50.492;12.134;2023-06-14T09:17:47;97593.41;;;24.43;36.56
20160;BME280;50187;50.492;12.134;2023-06-14T09:20:14;97594.28;;;24.44;36.34
20160;BME280;50187;50.492;12.134;2023-06-14T09:22:46;97605.16;;;24.44;36.34
20160;BME280;50187;50.492;12.134;2023-06-14T09:25:12;97596.41;;;24.48;36.40
20160;BME280;50187;50.492;12.134;2023-06-14T09:27:59;97600.81;;;24.49;36.50
20160;BME280;50187;50.492;12.134;2023-06-14T09:30:26;97594.81;;;24.54;36.29
20160;BME280;50187;50.492;12.134;2023-06-14T09:32:52;97591.91;;;24.56;36.31
20160;BME280;50187;50.492;12.134;2023-06-14T09:35:20;97595.25;;;24.58;36.34
20160;BME280;50187;50.492;12.134;2023-06-14T09:37:47;97608.66;;;24.59;36.25
20160;BME280;50187;50.492;12.134;2023-06-14T09:40:20;97595.75;;;24.61;36.31
20160;BME280;50187;50.492;12.134;2023-06-14T09:42:47;97600.00;;;24.64;36.14
20160;BME280;50187;50.492;12.134;2023-06-14T09:45:14;97603.53;;;24.64;36.30
20160;BME280;50187;50.492;12.134;2023-06-14T09:47:46;97597.06;;;24.65;36.18
20160;BME280;50187;50.492;12.134;2023-06-14T09:50:31;97601.69;;;24.65;36.31
20160;BME280;50187;50.492;12.134;2023-06-14T09:53:03;97589.56;;;24.67;36.38
20160;BME280;50187;50.492;12.134;2023-06-14T09:55:34;97593.13;;;24.68;36.26
20160;BME280;50187;50.492;12.134;2023-06-14T09:58:05;97590.22;;;24.69;36.48
20160;BME280;50187;50.492;12.134;2023-06-14T10:00:34;97589.19;;;24.71;36.48
20160;BME280;50187;50.492;12.134;2023-06-14T10:03:16;97595.47;;;24.71;36.16
20160;BME280;50187;50.492;12.134;2023-06-14T10:05:50;97586.09;;;24.74;36.28
20160;BME280;50187;50.492;12.134;2023-06-14T10:08:20;97583.56;;;24.72;36.43
20160;BME280;50187;50.492;12.134;2023-06-14T10:10:51;97583.34;;;24.74;36.26
20160;BME280;50187;50.492;12.134;2023-06-14T10:13:17;97590.47;;;24.75;36.47
20160;BME280;50187;50.492;12.134;2023-06-14T10:18:36;97573.22;;;24.67;36.50
20160;BME280;50187;50.492;12.134;2023-06-14T10:21:22;97578.31;;;24.71;36.55
20160;BME280;50187;50.492;12.134;2023-06-14T10:23:56;97586.28;;;24.72;36.48
20160;BME280;50187;50.492;12.134;2023-06-14T10:26:26;97572.47;;;24.74;36.39
20160;BME280;50187;50.492;12.134;2023-06-14T10:29:05;97577.91;;;24.74;36.22
20160;BME280;50187;50.492;12.134;2023-06-14T10:34:07;97585.03;;;24.75;36.29
20160;BME280;50187;50.492;12.134;2023-06-14T10:36:33;97584.66;;;24.78;36.24
20160;BME280;50187;50.492;12.134;2023-06-14T10:39:07;97578.56;;;24.76;36.36
20160;BME280;50187;50.492;12.134;2023-06-14T10:41:39;97582.31;;;24.75;36.43
20160;BME280;50187;50.492;12.134;2023-06-14T10:46:48;97573.78;;;24.78;36.64
20160;BME280;50187;50.492;12.134;2023-06-14T10:49:19;97579.59;;;24.75;36.49
20160;BME280;50187;50.492;12.134;2023-06-14T10:51:50;97575.00;;;24.75;36.54
20160;BME280;50187;50.492;12.134;2023-06-14T10:54:21;97575.44;;;24.79;36.44
20160;BME280;50187;50.492;12.134;2023-06-14T10:56:52;97577.34;;;24.78;36.32
20160;BME280;50187;50.492;12.134;2023-06-14T10:59:20;97575.00;;;24.75;36.46
20160;BME280;50187;50.492;12.134;2023-06-14T11:04:34;97569.56;;;24.75;36.53
20160;BME280;50187;50.492;12.134;2023-06-14T11:12:34;97565.16;;;24.74;36.40
20160;BME280;50187;50.492;12.134;2023-06-14T11:15:02;97594.50;;;24.79;36.46
20160;BME280;50187;50.492;12.134;2023-06-14T11:17:29;97572.72;;;24.79;36.38
20160;BME280;50187;50.492;12.134;2023-06-14T11:22:41;97570.88;;;24.79;36.58
20160;BME280;50187;50.492;12.134;2023-06-14T11:25:09;97559.31;;;24.77;36.42
20160;BME280;50187;50.492;12.134;2023-06-14T11:27:36;97570.00;;;24.79;36.50
20160;BME280;50187;50.492;12.134;2023-06-14T11:30:03;97577.13;;;24.80;36.60
20160;BME280;50187;50.492;12.134;2023-06-14T11:32:31;97568.34;;;24.78;36.64
20160;BME280;50187;50.492;12.134;2023-06-14T11:34:58;97572.72;;;24.79;36.62
20160;BME280;50187;50.492;12.134;2023-06-14T11:37:28;97560.81;;;24.80;36.70
20160;BME280;50187;50.492;12.134;2023-06-14T11:40:03;97559.13;;;24.79;36.49
20160;BME280;50187;50.492;12.134;2023-06-14T11:42:36;97559.78;;;24.81;36.51
20160;BME280;50187;50.492;12.134;2023-06-14T11:45:06;97559.13;;;24.79;36.67
20160;BME280;50187;50.492;12.134;2023-06-14T11:47:41;97563.72;;;24.78;36.55
20160;BME280;50187;50.492;12.134;2023-06-14T11:50:09;97549.50;;;24.76;36.75
20160;BME280;50187;50.492;12.134;2023-06-14T11:52:36;97547.59;;;24.77;36.74
20160;BME280;50187;50.492;12.134;2023-06-14T11:55:04;97552.22;;;24.76;36.69
20160;BME280;50187;50.492;12.134;2023-06-14T11:57:35;97550.31;;;24.77;36.64
20160;BME280;50187;50.492;12.134;2023-06-14T12:00:03;97553.03;;;24.77;36.53
20160;BME280;50187;50.492;12.134;2023-06-14T12:02:37;97566.44;;;24.78;36.55
20160;BME280;50187;50.492;12.134;2023-06-14T12:05:05;97557.00;;;24.74;36.57
20160;BME280;50187;50.492;12.134;2023-06-14T12:07:37;97551.75;;;24.73;36.91
20160;BME280;50187;50.492;12.134;2023-06-14T12:10:04;97552.78;;;24.72;36.65
20160;BME280;50187;50.492;12.134;2023-06-14T12:12:36;97548.56;;;24.69;36.94
20160;BME280;50187;50.492;12.134;2023-06-14T12:15:05;97551.47;;;24.67;36.75
20160;BME280;50187;50.492;12.134;2023-06-14T12:17:33;97546.03;;;24.67;36.70
20160;BME280;50187;50.492;12.134;2023-06-14T12:20:12;97583.47;;;24.65;36.89
20160;BME280;50187;50.492;12.134;2023-06-14T12:22:54;97552.25;;;24.61;37.07
20160;BME280;50187;50.492;12.134;2023-06-14T12:25:27;97548.69;;;24.61;37.16
20160;BME280;50187;50.492;12.134;2023-06-14T12:27:54;97552.59;;;24.58;36.87
20160;BME280;50187;50.492;12.134;2023-06-14T12:30:21;97551.75;;;24.58;36.85
20160;BME280;50187;50.492;12.134;2023-06-14T12:32:48;97553.81;;;24.56;36.86
20160;BME280;50187;50.492;12.134;2023-06-14T12:35:15;97562.63;;;24.58;36.78
20160;BME280;50187;50.492;12.134;2023-06-14T12:37:42;97551.69;;;24.51;36.84
20160;BME280;50187;50.492;12.134;2023-06-14T12:40:09;97562.19;;;24.54;37.06
20160;BME280;50187;50.492;12.134;2023-06-14T12:42:38;97544.16;;;24.53;37.14
20160;BME280;50187;50.492;12.134;2023-06-14T12:45:05;97559.25;;;24.56;37.54
20160;BME280;50187;50.492;12.134;2023-06-14T12:47:31;97557.97;;;24.51;37.53
20160;BME280;50187;50.492;12.134;2023-06-14T12:49:58;97563.00;;;24.55;37.43
20160;BME280;50187;50.492;12.134;2023-06-14T12:52:25;97567.22;;;24.57;37.85
20160;BME280;50187;50.492;12.134;2023-06-14T12:54:51;97559.06;;;24.57;38.12
20160;BME280;50187;50.492;12.134;2023-06-14T12:57:18;97554.28;;;24.59;37.77
20160;BME280;50187;50.492;12.134;2023-06-14T12:59:44;97560.56;;;24.60;37.40
20160;BME280;50187;50.492;12.134;2023-06-14T13:02:16;97558.72;;;24.60;37.25
20160;BME280;50187;50.492;12.134;2023-06-14T13:04:43;97561.59;;;24.59;37.31
20160;BME280;50187;50.492;12.134;2023-06-14T13:07:10;97559.06;;;24.57;37.45
20160;BME280;50187;50.492;12.134;2023-06-14T13:09:41;97561.50;;;24.52;37.22
20160;BME280;50187;50.492;12.134;2023-06-14T13:12:10;97551.09;;;24.56;37.08
20160;BME280;50187;50.492;12.134;2023-06-14T13:14:38;97562.56;;;24.51;37.46
20160;BME280;50187;50.492;12.134;2023-06-14T13:17:09;97569.31;;;24.55;37.53
20160;BME280;50187;50.492;12.134;2023-06-14T13:19:37;97560.69;;;24.51;37.60